sensor_id;sensor_type;location;lat;lon;timestamp;temperature;humidity
28247;DHT22;34504;53.178;22.058;2022-09-09T00:00:34;13.60;71.70
28247;DHT22;34504;53.178;22.058;2022-09-09T00:03:31;13.60;71.70
28247;DHT22;34504;53.178;22.058;2022-09-09T00:06:11;13.60;71.70
28247;DHT22;34504;53.178;22.058;2022-09-09T00:11:19;13.50;71.80
28247;DHT22;34504;53.178;22.058;2022-09-09T00:13:52;13.50;71.70
28247;DHT22;34504;53.178;22.058;2022-09-09T00:16:22;13.50;71.60
28247;DHT22;34504;53.178;22.058;2022-09-09T00:24:28;13.50;71.80
28247;DHT22;34504;53.178;22.058;2022-09-09T00:27:04;13.50;71.80
28247;DHT22;34504;53.178;22.058;2022-09-09T00:32:19;13.40;71.90
28247;DHT22;34504;53.178;22.058;2022-09-09T00:37:18;13.40;71.90
28247;DHT22;34504;53.178;22.058;2022-09-09T00:39:47;13.40;72.00
28247;DHT22;34504;53.178;22.058;2022-09-09T00:44:50;13.30;72.10
28247;DHT22;34504;53.178;22.058;2022-09-09T00:50:06;13.40;72.30
28247;DHT22;34504;53.178;22.058;2022-09-09T00:52:59;13.40;72.20
28247;DHT22;34504;53.178;22.058;2022-09-09T00:55:45;13.40;72.20
28247;DHT22;34504;53.178;22.058;2022-09-09T00:58:16;13.30;72.10
28247;DHT22;34504;53.178;22.058;2022-09-09T01:00:52;13.30;72.30
28247;DHT22;34504;53.178;22.058;2022-09-09T01:03:36;13.30;72.50
28247;DHT22;34504;53.178;22.058;2022-09-09T01:11:51;13.20;72.60
28247;DHT22;34504;53.178;22.058;2022-09-09T01:28:20;13.10;72.80
28247;DHT22;34504;53.178;22.058;2022-09-09T01:30:52;13.10;72.80
28247;DHT22;34504;53.178;22.058;2022-09-09T01:33:25;13.10;72.90
28247;DHT22;34504;53.178;22.058;2022-09-09T01:36:11;13.10;72.90
28247;DHT22;34504;53.178;22.058;2022-09-09T01:38:50;13.10;73.60
28247;DHT22;34504;53.178;22.058;2022-09-09T01:41:21;13.00;73.00
28247;DHT22;34504;53.178;22.058;2022-09-09T01:43:58;13.00;73.00
28247;DHT22;34504;53.178;22.058;2022-09-09T01:46:38;13.10;73.20
28247;DHT22;34504;53.178;22.058;2022-09-09T01:49:16;13.00;73.10
28247;DHT22;34504;53.178;22.058;2022-09-09T01:51:46;13.00;73.10
28247;DHT22;34504;53.178;22.058;2022-09-09T01:54:18;13.00;73.10
28247;DHT22;34504;53.178;22.058;2022-09-09T01:57:09;13.00;73.40
28247;DHT22;34504;53.178;22.058;2022-09-09T02:02:19;13.00;73.20
28247;DHT22;34504;53.178;22.058;2022-09-09T02:07:48;13.00;73.10
28247;DHT22;34504;53.178;22.058;2022-09-09T02:13:36;13.00;73.10
28247;DHT22;34504;53.178;22.058;2022-09-09T02:16:10;13.00;73.10
28247;DHT22;34504;53.178;22.058;2022-09-09T02:21:17;13.00;73.10
28247;DHT22;34504;53.178;22.058;2022-09-09T02:23:48;12.90;73.00
28247;DHT22;34504;53.178;22.058;2022-09-09T02:26:20;12.90;73.00
28247;DHT22;34504;53.178;22.058;2022-09-09T02:29:01;12.90;73.00
28247;DHT22;34504;53.178;22.058;2022-09-09T02:31:30;12.90;73.00
28247;DHT22;34504;53.178;22.058;2022-09-09T02:34:05;12.90;73.10
28247;DHT22;34504;53.178;22.058;2022-09-09T02:36:34;12.90;73.20
28247;DHT22;34504;53.178;22.058;2022-09-09T02:39:03;12.90;73.20
28247;DHT22;34504;53.178;22.058;2022-09-09T02:41:41;12.90;73.20
28247;DHT22;34504;53.178;22.058;2022-09-09T02:44:14;12.90;73.40
28247;DHT22;34504;53.178;22.058;2022-09-09T02:57:58;12.80;73.50
28247;DHT22;34504;53.178;22.058;2022-09-09T03:00:28;12.80;73.40
28247;DHT22;34504;53.178;22.058;2022-09-09T03:03:05;12.80;73.40
28247;DHT22;34504;53.178;22.058;2022-09-09T03:05:34;12.80;73.50
28247;DHT22;34504;53.178;22.058;2022-09-09T03:08:05;12.80;74.20
28247;DHT22;34504;53.178;22.058;2022-09-09T03:10:40;12.80;73.60
28247;DHT22;34504;53.178;22.058;2022-09-09T03:13:08;12.80;73.50
28247;DHT22;34504;53.178;22.058;2022-09-09T03:15:38;12.80;73.70
28247;DHT22;34504;53.178;22.058;2022-09-09T03:18:13;12.80;73.60
28247;DHT22;34504;53.178;22.058;2022-09-09T03:20:47;12.70;73.70
28247;DHT22;34504;53.178;22.058;2022-09-09T03:23:21;12.80;73.80
28247;DHT22;34504;53.178;22.058;2022-09-09T03:25:50;12.70;73.90
28247;DHT22;34504;53.178;22.058;2022-09-09T03:28:30;12.70;73.90
28247;DHT22;34504;53.178;22.058;2022-09-09T03:31:09;12.70;73.90
28247;DHT22;34504;53.178;22.058;2022-09-09T03:33:44;12.70;73.90
28247;DHT22;34504;53.178;22.058;2022-09-09T03:36:17;12.80;74.00
28247;DHT22;34504;53.178;22.058;2022-09-09T03:38:47;12.80;74.00
28247;DHT22;34504;53.178;22.058;2022-09-09T03:41:15;12.80;73.90
28247;DHT22;34504;53.178;22.058;2022-09-09T03:43:48;12.80;74.50
28247;DHT22;34504;53.178;22.058;2022-09-09T03:46:23;12.80;73.80
28247;DHT22;34504;53.178;22.058;2022-09-09T03:48:52;12.80;73.90
28247;DHT22;34504;53.178;22.058;2022-09-09T03:51:22;12.80;74.10
28247;DHT22;34504;53.178;22.058;2022-09-09T03:53:52;12.80;74.10
28247;DHT22;34504;53.178;22.058;2022-09-09T03:56:29;12.80;74.70
28247;DHT22;34504;53.178;22.058;2022-09-09T03:58:59;12.80;74.10
28247;DHT22;34504;53.178;22.058;2022-09-09T04:01:28;12.80;74.10
28247;DHT22;34504;53.178;22.058;2022-09-09T04:04:00;12.80;74.30
28247;DHT22;34504;53.178;22.058;2022-09-09T04:06:30;12.80;74.20
28247;DHT22;34504;53.178;22.058;2022-09-09T04:09:02;12.80;74.30
28247;DHT22;34504;53.178;22.058;2022-09-09T04:11:32;12.80;74.30
28247;DHT22;34504;53.178;22.058;2022-09-09T04:14:00;12.80;74.30
28247;DHT22;34504;53.178;22.058;2022-09-09T04:16:32;12.80;74.30
28247;DHT22;34504;53.178;22.058;2022-09-09T04:19:01;12.80;74.40
28247;DHT22;34504;53.178;22.058;2022-09-09T04:21:32;12.80;74.60
28247;DHT22;34504;53.178;22.058;2022-09-09T04:24:13;12.80;75.10
28247;DHT22;34504;53.178;22.058;2022-09-09T04:26:47;12.80;75.70
28247;DHT22;34504;53.178;22.058;2022-09-09T04:29:18;12.80;76.20
28247;DHT22;34504;53.178;22.058;2022-09-09T04:31:47;12.80;76.60
28247;DHT22;34504;53.178;22.058;2022-09-09T04:34:18;12.80;77.30
28247;DHT22;34504;53.178;22.058;2022-09-09T04:36:50;12.80;78.10
28247;DHT22;34504;53.178;22.058;2022-09-09T04:39:20;12.70;78.90
28247;DHT22;34504;53.178;22.058;2022-09-09T04:41:50;12.70;80.00
28247;DHT22;34504;53.178;22.058;2022-09-09T04:44:23;12.70;81.60
28247;DHT22;34504;53.178;22.058;2022-09-09T04:46:51;12.60;82.90
28247;DHT22;34504;53.178;22.058;2022-09-09T04:49:24;12.50;84.10
28247;DHT22;34504;53.178;22.058;2022-09-09T04:51:58;12.50;84.80
28247;DHT22;34504;53.178;22.058;2022-09-09T04:54:27;12.40;85.30
28247;DHT22;34504;53.178;22.058;2022-09-09T04:57:00;12.40;86.10
28247;DHT22;34504;53.178;22.058;2022-09-09T04:59:31;12.30;86.50
28247;DHT22;34504;53.178;22.058;2022-09-09T05:02:05;12.30;87.20
28247;DHT22;34504;53.178;22.058;2022-09-09T05:04:34;12.20;87.90
28247;DHT22;34504;53.178;22.058;2022-09-09T05:07:03;12.20;88.50
28247;DHT22;34504;53.178;22.058;2022-09-09T05:09:31;12.10;88.30
28247;DHT22;34504;53.178;22.058;2022-09-09T05:12:08;12.10;89.50
28247;DHT22;34504;53.178;22.058;2022-09-09T05:14:47;12.10;90.20
28247;DHT22;34504;53.178;22.058;2022-09-09T05:17:18;12.00;90.30
28247;DHT22;34504;53.178;22.058;2022-09-09T05:19:59;11.90;90.60
28247;DHT22;34504;53.178;22.058;2022-09-09T05:22:29;11.90;91.00
28247;DHT22;34504;53.178;22.058;2022-09-09T05:24:58;11.70;91.40
28247;DHT22;34504;53.178;22.058;2022-09-09T05:27:26;11.70;91.70
28247;DHT22;34504;53.178;22.058;2022-09-09T05:30:03;11.60;91.60
28247;DHT22;34504;53.178;22.058;2022-09-09T05:32:36;11.50;92.10
28247;DHT22;34504;53.178;22.058;2022-09-09T05:35:12;11.50;92.50
28247;DHT22;34504;53.178;22.058;2022-09-09T05:37:46;11.40;92.80
28247;DHT22;34504;53.178;22.058;2022-09-09T05:40:16;11.30;92.90
28247;DHT22;34504;53.178;22.058;2022-09-09T05:42:53;11.30;93.20
28247;DHT22;34504;53.178;22.058;2022-09-09T05:45:26;11.20;93.50
28247;DHT22;34504;53.178;22.058;2022-09-09T05:47:55;11.20;93.70
28247;DHT22;34504;53.178;22.058;2022-09-09T05:50:30;11.10;94.00
28247;DHT22;34504;53.178;22.058;2022-09-09T05:52:59;11.00;94.00
28247;DHT22;34504;53.178;22.058;2022-09-09T05:55:27;11.00;94.30
28247;DHT22;34504;53.178;22.058;2022-09-09T05:58:02;11.00;94.50
28247;DHT22;34504;53.178;22.058;2022-09-09T06:00:30;11.00;94.60
28247;DHT22;34504;53.178;22.058;2022-09-09T06:03:05;10.90;94.70
28247;DHT22;34504;53.178;22.058;2022-09-09T06:05:48;10.90;94.80
28247;DHT22;34504;53.178;22.058;2022-09-09T06:08:27;10.90;94.90
28247;DHT22;34504;53.178;22.058;2022-09-09T06:11:14;10.90;95.20
28247;DHT22;34504;53.178;22.058;2022-09-09T06:13:49;10.80;95.30
28247;DHT22;34504;53.178;22.058;2022-09-09T06:16:25;10.80;95.70
28247;DHT22;34504;53.178;22.058;2022-09-09T06:18:56;10.70;95.90
28247;DHT22;34504;53.178;22.058;2022-09-09T06:21:32;10.70;96.00
28247;DHT22;34504;53.178;22.058;2022-09-09T06:24:05;10.70;96.00
28247;DHT22;34504;53.178;22.058;2022-09-09T06:26:37;10.70;96.20
28247;DHT22;34504;53.178;22.058;2022-09-09T06:29:11;10.70;96.40
28247;DHT22;34504;53.178;22.058;2022-09-09T06:31:45;10.70;96.40
28247;DHT22;34504;53.178;22.058;2022-09-09T06:34:16;10.70;96.60
28247;DHT22;34504;53.178;22.058;2022-09-09T06:36:49;10.70;96.50
28247;DHT22;34504;53.178;22.058;2022-09-09T06:39:17;10.70;96.50
28247;DHT22;34504;53.178;22.058;2022-09-09T06:41:47;10.70;96.70
28247;DHT22;34504;53.178;22.058;2022-09-09T06:44:45;10.60;96.50
28247;DHT22;34504;53.178;22.058;2022-09-09T06:47:32;10.60;96.80
28247;DHT22;34504;53.178;22.058;2022-09-09T06:50:02;10.60;97.10
28247;DHT22;34504;53.178;22.058;2022-09-09T06:52:33;10.60;97.00
28247;DHT22;34504;53.178;22.058;2022-09-09T06:55:02;10.60;97.20
28247;DHT22;34504;53.178;22.058;2022-09-09T06:57:32;10.60;97.10
28247;DHT22;34504;53.178;22.058;2022-09-09T07:00:18;10.60;97.00
28247;DHT22;34504;53.178;22.058;2022-09-09T07:02:51;10.60;97.00
28247;DHT22;34504;53.178;22.058;2022-09-09T07:05:25;10.60;97.20
28247;DHT22;34504;53.178;22.058;2022-09-09T07:07:54;10.60;97.20
28247;DHT22;34504;53.178;22.058;2022-09-09T07:10:24;10.60;97.20
28247;DHT22;34504;53.178;22.058;2022-09-09T07:12:55;10.60;97.10
28247;DHT22;34504;53.178;22.058;2022-09-09T07:15:25;10.60;97.10
28247;DHT22;34504;53.178;22.058;2022-09-09T07:17:54;10.60;97.10
28247;DHT22;34504;53.178;22.058;2022-09-09T07:20:25;10.60;97.40
28247;DHT22;34504;53.178;22.058;2022-09-09T07:22:58;10.50;97.20
28247;DHT22;34504;53.178;22.058;2022-09-09T07:25:27;10.60;97.40
28247;DHT22;34504;53.178;22.058;2022-09-09T07:28:10;10.60;97.60
28247;DHT22;34504;53.178;22.058;2022-09-09T07:30:52;10.60;97.60
28247;DHT22;34504;53.178;22.058;2022-09-09T07:33:21;10.60;97.70
28247;DHT22;34504;53.178;22.058;2022-09-09T07:35:49;10.70;97.60
28247;DHT22;34504;53.178;22.058;2022-09-09T07:38:21;10.70;97.60
28247;DHT22;34504;53.178;22.058;2022-09-09T07:40:51;10.70;97.70
28247;DHT22;34504;53.178;22.058;2022-09-09T07:43:19;10.80;97.60
28247;DHT22;34504;53.178;22.058;2022-09-09T07:45:47;10.70;97.60
28247;DHT22;34504;53.178;22.058;2022-09-09T07:48:18;10.80;97.90
28247;DHT22;34504;53.178;22.058;2022-09-09T07:51:02;10.80;97.80
28247;DHT22;34504;53.178;22.058;2022-09-09T07:53:31;10.90;97.60
28247;DHT22;34504;53.178;22.058;2022-09-09T07:56:07;10.90;97.70
28247;DHT22;34504;53.178;22.058;2022-09-09T07:58:40;10.90;97.70
28247;DHT22;34504;53.178;22.058;2022-09-09T08:01:24;10.90;97.70
28247;DHT22;34504;53.178;22.058;2022-09-09T08:03:54;10.90;97.50
28247;DHT22;34504;53.178;22.058;2022-09-09T08:06:27;10.90;97.60
28247;DHT22;34504;53.178;22.058;2022-09-09T08:08:59;10.80;97.60
28247;DHT22;34504;53.178;22.058;2022-09-09T08:11:33;10.90;97.90
28247;DHT22;34504;53.178;22.058;2022-09-09T08:14:11;10.90;97.90
28247;DHT22;34504;53.178;22.058;2022-09-09T08:16:44;10.90;97.60
28247;DHT22;34504;53.178;22.058;2022-09-09T08:19:17;10.90;97.90
28247;DHT22;34504;53.178;22.058;2022-09-09T08:21:47;10.90;98.10
28247;DHT22;34504;53.178;22.058;2022-09-09T08:24:20;10.90;98.10
28247;DHT22;34504;53.178;22.058;2022-09-09T08:26:52;11.00;98.10
28247;DHT22;34504;53.178;22.058;2022-09-09T08:29:23;11.00;98.20
28247;DHT22;34504;53.178;22.058;2022-09-09T08:31:58;11.00;98.00
28247;DHT22;34504;53.178;22.058;2022-09-09T08:34:28;11.00;98.10
28247;DHT22;34504;53.178;22.058;2022-09-09T08:37:02;11.00;98.10
28247;DHT22;34504;53.178;22.058;2022-09-09T08:39:35;11.00;98.10
28247;DHT22;34504;53.178;22.058;2022-09-09T08:42:23;11.00;98.20
28247;DHT22;34504;53.178;22.058;2022-09-09T09:12:35;11.60;97.00
28247;DHT22;34504;53.178;22.058;2022-09-09T09:15:16;11.60;96.80
28247;DHT22;34504;53.178;22.058;2022-09-09T09:17:47;11.60;96.60
28247;DHT22;34504;53.178;22.058;2022-09-09T09:20:20;11.50;97.00
28247;DHT22;34504;53.178;22.058;2022-09-09T09:22:51;11.50;97.10
28247;DHT22;34504;53.178;22.058;2022-09-09T09:25:23;11.40;96.70
28247;DHT22;34504;53.178;22.058;2022-09-09T09:30:36;11.30;97.10
28247;DHT22;34504;53.178;22.058;2022-09-09T09:33:16;11.30;97.10
28247;DHT22;34504;53.178;22.058;2022-09-09T09:35:49;11.30;97.30
28247;DHT22;34504;53.178;22.058;2022-09-09T09:38:21;11.40;97.40
28247;DHT22;34504;53.178;22.058;2022-09-09T09:41:10;11.30;97.40
28247;DHT22;34504;53.178;22.058;2022-09-09T09:43:41;11.30;97.90
28247;DHT22;34504;53.178;22.058;2022-09-09T09:46:21;11.30;97.60
28247;DHT22;34504;53.178;22.058;2022-09-09T09:49:04;11.40;97.70
28247;DHT22;34504;53.178;22.058;2022-09-09T09:51:35;11.40;97.80
28247;DHT22;34504;53.178;22.058;2022-09-09T09:56:43;11.40;97.80
28247;DHT22;34504;53.178;22.058;2022-09-09T10:02:23;11.30;98.00
28247;DHT22;34504;53.178;22.058;2022-09-09T10:05:17;11.40;98.00
28247;DHT22;34504;53.178;22.058;2022-09-09T10:08:05;11.30;98.30
28247;DHT22;34504;53.178;22.058;2022-09-09T10:20:22;11.50;98.40
28247;DHT22;34504;53.178;22.058;2022-09-09T10:37:41;11.60;98.50
28247;DHT22;34504;53.178;22.058;2022-09-09T10:43:50;11.60;98.70
28247;DHT22;34504;53.178;22.058;2022-09-09T10:57:38;11.60;98.90
28247;DHT22;34504;53.178;22.058;2022-09-09T11:00:22;11.60;98.90
28247;DHT22;34504;53.178;22.058;2022-09-09T11:02:56;11.60;98.80
28247;DHT22;34504;53.178;22.058;2022-09-09T11:05:35;11.60;99.00
28247;DHT22;34504;53.178;22.058;2022-09-09T11:19:36;11.70;99.20
28247;DHT22;34504;53.178;22.058;2022-09-09T11:25:37;11.80;99.30
28247;DHT22;34504;53.178;22.058;2022-09-09T11:40:35;12.00;99.40
28247;DHT22;34504;53.178;22.058;2022-09-09T11:43:43;12.00;99.60
28247;DHT22;34504;53.178;22.058;2022-09-09T11:46:14;12.10;99.50
28247;DHT22;34504;53.178;22.058;2022-09-09T11:49:01;12.10;99.30
28247;DHT22;34504;53.178;22.058;2022-09-09T11:51:31;12.10;99.30
28247;DHT22;34504;53.178;22.058;2022-09-09T11:54:02;12.10;99.30
28247;DHT22;34504;53.178;22.058;2022-09-09T11:56:44;12.10;99.30
28247;DHT22;34504;53.178;22.058;2022-09-09T11:59:24;12.10;99.20
28247;DHT22;34504;53.178;22.058;2022-09-09T12:02:03;12.10;99.60
28247;DHT22;34504;53.178;22.058;2022-09-09T12:12:49;12.20;99.60
28247;DHT22;34504;53.178;22.058;2022-09-09T12:17:50;12.30;99.60
28247;DHT22;34504;53.178;22.058;2022-09-09T12:20:37;12.30;99.70
28247;DHT22;34504;53.178;22.058;2022-09-09T12:25:55;12.30;99.70
28247;DHT22;34504;53.178;22.058;2022-09-09T12:31:33;12.40;99.60
28247;DHT22;34504;53.178;22.058;2022-09-09T12:34:22;12.40;99.90
28247;DHT22;34504;53.178;22.058;2022-09-09T12:36:58;12.50;99.40
28247;DHT22;34504;53.178;22.058;2022-09-09T12:39:34;12.50;99.40
28247;DHT22;34504;53.178;22.058;2022-09-09T12:42:04;12.50;99.40
28247;DHT22;34504;53.178;22.058;2022-09-09T12:44:32;12.50;99.20
28247;DHT22;34504;53.178;22.058;2022-09-09T12:47:02;12.50;99.40
28247;DHT22;34504;53.178;22.058;2022-09-09T12:49:32;12.50;99.10
28247;DHT22;34504;53.178;22.058;2022-09-09T12:52:21;12.50;99.50
28247;DHT22;34504;53.178;22.058;2022-09-09T12:54:51;12.50;99.20
28247;DHT22;34504;53.178;22.058;2022-09-09T12:57:25;12.50;99.20
28247;DHT22;34504;53.178;22.058;2022-09-09T13:00:10;12.50;99.20
28247;DHT22;34504;53.178;22.058;2022-09-09T13:02:51;12.50;99.30
28247;DHT22;34504;53.178;22.058;2022-09-09T13:05:26;12.40;99.30
28247;DHT22;34504;53.178;22.058;2022-09-09T13:08:05;12.50;99.20
28247;DHT22;34504;53.178;22.058;2022-09-09T13:10:48;12.50;99.30
28247;DHT22;34504;53.178;22.058;2022-09-09T13:13:38;12.50;99.40
28247;DHT22;34504;53.178;22.058;2022-09-09T13:16:27;12.40;99.40
28247;DHT22;34504;53.178;22.058;2022-09-09T13:19:13;12.40;99.40
28247;DHT22;34504;53.178;22.058;2022-09-09T13:21:43;12.40;99.40
28247;DHT22;34504;53.178;22.058;2022-09-09T13:24:31;12.40;99.30
28247;DHT22;34504;53.178;22.058;2022-09-09T13:27:05;12.30;99.30
28247;DHT22;34504;53.178;22.058;2022-09-09T13:29:53;12.30;99.60
28247;DHT22;34504;53.178;22.058;2022-09-09T13:32:25;12.30;99.40
28247;DHT22;34504;53.178;22.058;2022-09-09T13:34:59;12.30;99.60
28247;DHT22;34504;53.178;22.058;2022-09-09T13:37:34;12.30;99.30
28247;DHT22;34504;53.178;22.058;2022-09-09T13:40:06;12.30;99.20
28247;DHT22;34504;53.178;22.058;2022-09-09T13:42:39;12.30;99.40
28247;DHT22;34504;53.178;22.058;2022-09-09T13:45:19;12.30;99.40
28247;DHT22;34504;53.178;22.058;2022-09-09T13:47:50;12.30;99.40
28247;DHT22;34504;53.178;22.058;2022-09-09T13:52:52;12.30;99.40
28247;DHT22;34504;53.178;22.058;2022-09-09T13:55:23;12.40;99.40
28247;DHT22;34504;53.178;22.058;2022-09-09T13:57:59;12.30;99.50
28247;DHT22;34504;53.178;22.058;2022-09-09T14:00:33;12.40;99.40
28247;DHT22;34504;53.178;22.058;2022-09-09T14:03:02;12.40;99.40
28247;DHT22;34504;53.178;22.058;2022-09-09T14:05:32;12.30;99.40
28247;DHT22;34504;53.178;22.058;2022-09-09T14:08:00;12.40;99.40
28247;DHT22;34504;53.178;22.058;2022-09-09T14:10:28;12.40;99.50
28247;DHT22;34504;53.178;22.058;2022-09-09T14:12:56;12.40;99.60
28247;DHT22;34504;53.178;22.058;2022-09-09T14:15:24;12.40;99.70
28247;DHT22;34504;53.178;22.058;2022-09-09T14:17:52;12.40;99.70
28247;DHT22;34504;53.178;22.058;2022-09-09T14:20:22;12.40;99.80
28247;DHT22;34504;53.178;22.058;2022-09-09T14:22:50;12.40;99.60
28247;DHT22;34504;53.178;22.058;2022-09-09T14:25:18;12.40;99.70
28247;DHT22;34504;53.178;22.058;2022-09-09T14:27:46;12.40;99.70
28247;DHT22;34504;53.178;22.058;2022-09-09T14:30:14;12.40;99.70
28247;DHT22;34504;53.178;22.058;2022-09-09T14:32:41;12.40;99.80
28247;DHT22;34504;53.178;22.058;2022-09-09T14:35:09;12.40;99.70
28247;DHT22;34504;53.178;22.058;2022-09-09T14:37:37;12.40;99.70
28247;DHT22;34504;53.178;22.058;2022-09-09T14:40:06;12.40;99.60
28247;DHT22;34504;53.178;22.058;2022-09-09T14:42:35;12.30;99.70
28247;DHT22;34504;53.178;22.058;2022-09-09T14:45:03;12.30;99.80
28247;DHT22;34504;53.178;22.058;2022-09-09T14:47:31;12.40;99.90
28247;DHT22;34504;53.178;22.058;2022-09-09T14:49:59;12.30;99.80
28247;DHT22;34504;53.178;22.058;2022-09-09T14:52:29;12.30;99.60
28247;DHT22;34504;53.178;22.058;2022-09-09T14:54:57;12.40;99.70
28247;DHT22;34504;53.178;22.058;2022-09-09T14:57:25;12.40;99.80
28247;DHT22;34504;53.178;22.058;2022-09-09T14:59:53;12.40;99.70
28247;DHT22;34504;53.178;22.058;2022-09-09T15:02:21;12.30;99.70
28247;DHT22;34504;53.178;22.058;2022-09-09T15:04:49;12.40;99.80
28247;DHT22;34504;53.178;22.058;2022-09-09T15:07:17;12.40;99.80
28247;DHT22;34504;53.178;22.058;2022-09-09T15:09:46;12.40;99.60
28247;DHT22;34504;53.178;22.058;2022-09-09T15:12:16;12.40;99.60
28247;DHT22;34504;53.178;22.058;2022-09-09T15:14:46;12.40;99.70
28247;DHT22;34504;53.178;22.058;2022-09-09T15:17:14;12.40;99.70
28247;DHT22;34504;53.178;22.058;2022-09-09T15:19:42;12.30;99.70
28247;DHT22;34504;53.178;22.058;2022-09-09T15:22:10;12.40;99.70
28247;DHT22;34504;53.178;22.058;2022-09-09T15:24:38;12.40;99.80
28247;DHT22;34504;53.178;22.058;2022-09-09T15:27:06;12.40;99.80
28247;DHT22;34504;53.178;22.058;2022-09-09T15:29:34;12.40;99.80
28247;DHT22;34504;53.178;22.058;2022-09-09T15:32:02;12.40;99.60
28247;DHT22;34504;53.178;22.058;2022-09-09T15:34:30;12.40;99.70
28247;DHT22;34504;53.178;22.058;2022-09-09T15:36:59;12.40;99.60
28247;DHT22;34504;53.178;22.058;2022-09-09T15:39:29;12.40;99.50
28247;DHT22;34504;53.178;22.058;2022-09-09T15:42:02;12.40;99.60
28247;DHT22;34504;53.178;22.058;2022-09-09T15:44:30;12.40;99.50
28247;DHT22;34504;53.178;22.058;2022-09-09T15:47:05;12.40;99.50
28247;DHT22;34504;53.178;22.058;2022-09-09T15:49:33;12.40;99.50
28247;DHT22;34504;53.178;22.058;2022-09-09T15:52:01;12.40;99.30
28247;DHT22;34504;53.178;22.058;2022-09-09T15:54:33;12.40;99.30
28247;DHT22;34504;53.178;22.058;2022-09-09T15:57:03;12.30;99.20
28247;DHT22;34504;53.178;22.058;2022-09-09T15:59:32;12.30;99.40
28247;DHT22;34504;53.178;22.058;2022-09-09T16:02:01;12.30;99.40
28247;DHT22;34504;53.178;22.058;2022-09-09T16:04:33;12.30;99.40
28247;DHT22;34504;53.178;22.058;2022-09-09T16:07:03;12.30;99.40
28247;DHT22;34504;53.178;22.058;2022-09-09T16:09:33;12.30;99.50
28247;DHT22;34504;53.178;22.058;2022-09-09T16:12:04;12.30;99.50
28247;DHT22;34504;53.178;22.058;2022-09-09T16:14:33;12.30;99.50
28247;DHT22;34504;53.178;22.058;2022-09-09T16:17:04;12.30;99.50
28247;DHT22;34504;53.178;22.058;2022-09-09T16:19:33;12.30;99.60
28247;DHT22;34504;53.178;22.058;2022-09-09T16:22:02;12.30;99.50
28247;DHT22;34504;53.178;22.058;2022-09-09T16:24:32;12.20;99.40
28247;DHT22;34504;53.178;22.058;2022-09-09T16:27:03;12.20;99.50
28247;DHT22;34504;53.178;22.058;2022-09-09T16:29:31;12.30;99.50
28247;DHT22;34504;53.178;22.058;2022-09-09T16:32:00;12.30;99.20
28247;DHT22;34504;53.178;22.058;2022-09-09T16:34:31;12.40;98.90
28247;DHT22;34504;53.178;22.058;2022-09-09T16:37:01;12.40;99.20
28247;DHT22;34504;53.178;22.058;2022-09-09T16:39:29;12.40;99.30
28247;DHT22;34504;53.178;22.058;2022-09-09T16:41:58;12.40;99.30
28247;DHT22;34504;53.178;22.058;2022-09-09T16:44:28;12.40;99.30
28247;DHT22;34504;53.178;22.058;2022-09-09T16:46:56;12.30;99.50
28247;DHT22;34504;53.178;22.058;2022-09-09T16:49:27;12.30;99.50
28247;DHT22;34504;53.178;22.058;2022-09-09T16:51:59;12.30;99.50
28247;DHT22;34504;53.178;22.058;2022-09-09T16:54:27;12.30;99.60
28247;DHT22;34504;53.178;22.058;2022-09-09T16:56:57;12.20;99.70
28247;DHT22;34504;53.178;22.058;2022-09-09T16:59:27;12.20;99.80
28247;DHT22;34504;53.178;22.058;2022-09-09T17:01:56;12.20;99.80
28247;DHT22;34504;53.178;22.058;2022-09-09T17:04:27;12.20;99.80
28247;DHT22;34504;53.178;22.058;2022-09-09T17:06:59;12.20;99.80
28247;DHT22;34504;53.178;22.058;2022-09-09T17:09:27;12.20;99.90
28247;DHT22;34504;53.178;22.058;2022-09-09T17:11:57;12.10;99.90
28247;DHT22;34504;53.178;22.058;2022-09-09T17:14:25;12.10;99.90
28247;DHT22;34504;53.178;22.058;2022-09-09T17:16:53;12.10;99.90
28247;DHT22;34504;53.178;22.058;2022-09-09T17:19:21;12.10;99.90
28247;DHT22;34504;53.178;22.058;2022-09-09T17:21:50;12.00;99.90
28247;DHT22;34504;53.178;22.058;2022-09-09T17:24:38;12.00;99.90
28247;DHT22;34504;53.178;22.058;2022-09-09T17:27:07;12.00;99.90
28247;DHT22;34504;53.178;22.058;2022-09-09T17:29:35;12.00;99.90
28247;DHT22;34504;53.178;22.058;2022-09-09T17:32:06;12.00;99.90
28247;DHT22;34504;53.178;22.058;2022-09-09T17:34:35;12.00;99.90
28247;DHT22;34504;53.178;22.058;2022-09-09T17:37:04;12.00;99.90
28247;DHT22;34504;53.178;22.058;2022-09-09T17:39:34;11.90;99.90
28247;DHT22;34504;53.178;22.058;2022-09-09T17:42:03;11.90;99.90
28247;DHT22;34504;53.178;22.058;2022-09-09T17:44:30;11.90;99.90
28247;DHT22;34504;53.178;22.058;2022-09-09T17:46:59;12.00;99.90
28247;DHT22;34504;53.178;22.058;2022-09-09T17:49:28;12.00;99.90
28247;DHT22;34504;53.178;22.058;2022-09-09T17:51:56;11.90;99.90
28247;DHT22;34504;53.178;22.058;2022-09-09T17:54:24;11.90;99.90
28247;DHT22;34504;53.178;22.058;2022-09-09T17:56:52;11.90;99.90
28247;DHT22;34504;53.178;22.058;2022-09-09T17:59:20;11.90;99.90
28247;DHT22;34504;53.178;22.058;2022-09-09T18:01:48;11.90;99.90
28247;DHT22;34504;53.178;22.058;2022-09-09T18:04:18;11.90;99.90
28247;DHT22;34504;53.178;22.058;2022-09-09T18:06:51;11.90;99.90
28247;DHT22;34504;53.178;22.058;2022-09-09T18:09:24;11.90;99.90
28247;DHT22;34504;53.178;22.058;2022-09-09T18:11:54;11.90;99.90
28247;DHT22;34504;53.178;22.058;2022-09-09T18:14:27;11.90;99.90
28247;DHT22;34504;53.178;22.058;2022-09-09T18:17:00;11.90;99.90
28247;DHT22;34504;53.178;22.058;2022-09-09T18:19:31;11.90;99.90
28247;DHT22;34504;53.178;22.058;2022-09-09T18:22:00;11.80;99.90
28247;DHT22;34504;53.178;22.058;2022-09-09T18:24:30;11.80;99.90
28247;DHT22;34504;53.178;22.058;2022-09-09T18:26:59;11.80;99.90
28247;DHT22;34504;53.178;22.058;2022-09-09T18:29:28;11.80;99.90
28247;DHT22;34504;53.178;22.058;2022-09-09T18:31:57;11.80;99.90
28247;DHT22;34504;53.178;22.058;2022-09-09T18:34:25;11.90;99.90
28247;DHT22;34504;53.178;22.058;2022-09-09T18:36:56;11.80;99.90
28247;DHT22;34504;53.178;22.058;2022-09-09T18:39:27;11.90;99.90
28247;DHT22;34504;53.178;22.058;2022-09-09T18:41:58;11.80;99.90
28247;DHT22;34504;53.178;22.058;2022-09-09T18:44:32;11.80;99.90
28247;DHT22;34504;53.178;22.058;2022-09-09T18:47:01;11.80;99.90
28247;DHT22;34504;53.178;22.058;2022-09-09T18:49:31;11.80;99.90
28247;DHT22;34504;53.178;22.058;2022-09-09T18:52:00;11.80;99.90